Time;durP1;ratioP1;P1;durP2;ratioP2;P2;SDS_P1;SDS_P2;PMS_P1;PMS_P2;Temp;Humidity;BMP_temperature;BMP_pressure;BME280_temperature;BME280_humidity;BME280_pressure;Samples;Min_cycle;Max_cycle;Signal;HPM_P1;HPM_P2
2023/09/24 00:01:08;;;;;;;6.70;3.03;;;;;;;11.30;100.00;102086.97;4976427;28;20530;-51
2023/09/24 00:03:33;;;;;;;7.13;2.88;;;;;;;11.28;100.00;102091.41;4975108;28;20050;-47
2023/09/24 00:06:06;;;;;;;8.30;3.03;;;;;;;10.86;100.00;102021.78;4974975;28;20030;-47
2023/09/24 00:08:32;;;;;;;5.45;2.55;;;;;;;10.69;100.00;102006.22;4974043;28;20463;-47
2023/09/24 00:10:58;;;;;;;8.13;2.30;;;;;;;10.72;100.00;102021.97;4974881;28;20038;-47
2023/09/24 00:13:23;;;;;;;6.35;2.40;;;;;;;10.93;100.00;102059.44;4976054;28;20031;-49
2023/09/24 00:15:50;;;;;;;5.60;2.20;;;;;;;11.17;100.00;102101.25;4975253;28;20501;-52
2023/09/24 00:18:17;;;;;;;5.63;2.40;;;;;;;10.71;100.00;102025.50;4974365;28;20065;-47
2023/09/24 00:20:42;;;;;;;7.75;2.17;;;;;;;10.65;100.00;102014.19;4976035;28;20066;-51
2023/09/24 00:23:08;;;;;;;7.78;2.47;;;;;;;11.11;100.00;102103.97;4974709;28;20085;-51
2023/09/24 00:25:33;;;;;;;8.98;2.92;;;;;;;11.10;100.00;102099.59;4974814;28;20065;-49
2023/09/24 00:27:59;;;;;;;5.40;2.38;;;;;;;11.08;100.00;102102.25;4976047;28;20398;-47
2023/09/24 00:30:24;;;;;;;5.15;2.30;;;;;;;10.63;100.00;102032.63;4975655;28;20038;-50
2023/09/24 00:32:53;;;;;;;6.32;2.70;;;;;;;10.46;100.00;102007.44;4974627;28;20038;-47
2023/09/24 00:35:18;;;;;;;11.88;2.72;;;;;;;10.57;100.00;102037.97;4975901;28;20042;-46
2023/09/24 00:37:44;;;;;;;5.82;2.47;;;;;;;10.55;100.00;102044.16;4975930;28;20406;-46
2023/09/24 00:40:11;;;;;;;7.07;2.90;;;;;;;9.57;100.00;101914.69;4975917;28;20070;-48
2023/09/24 00:42:37;;;;;;;6.70;2.60;;;;;;;10.82;100.00;102109.66;4974528;28;20050;-50
2023/09/24 00:45:05;;;;;;;6.15;2.35;;;;;;;10.72;100.00;102116.78;4974118;28;20066;-46
2023/09/24 00:47:30;;;;;;;8.60;2.55;;;;;;;10.34;100.00;102042.69;4974415;28;20057;-47
2023/09/24 00:49:55;;;;;;;8.98;3.20;;;;;;;10.28;100.00;102047.13;4975656;28;20039;-46
2023/09/24 00:52:24;;;;;;;6.57;2.40;;;;;;;10.25;100.00;102039.28;4975624;28;20487;-50
2023/09/24 00:54:50;;;;;;;4.22;2.45;;;;;;;10.23;100.00;102038.44;4975311;28;20035;-46
2023/09/24 00:57:16;;;;;;;7.70;2.47;;;;;;;10.16;100.00;102040.25;4975463;28;20034;-49
2023/09/24 00:59:43;;;;;;;5.95;2.55;;;;;;;10.56;100.00;102111.75;4973205;28;20046;-49
2023/09/24 01:02:09;;;;;;;9.40;3.45;;;;;;;10.13;100.00;102046.44;4975238;28;20434;-47
2023/09/24 01:04:35;;;;;;;6.32;3.35;;;;;;;10.52;100.00;102121.44;4975409;28;20082;-48
2023/09/24 01:07:00;;;;;;;6.43;3.15;;;;;;;10.35;100.00;102117.25;4973806;28;20509;-49
2023/09/24 01:09:26;;;;;;;7.50;3.60;;;;;;;10.10;100.00;102051.69;4975163;28;20062;-48
2023/09/24 01:11:52;;;;;;;6.50;3.63;;;;;;;10.43;100.00;102108.38;4975130;28;20035;-49
2023/09/24 01:14:18;;;;;;;7.45;2.70;;;;;;;10.25;100.00;102076.13;4973534;28;20066;-46
2023/09/24 01:16:43;;;;;;;5.55;3.22;;;;;;;10.22;100.00;102100.72;4973698;28;20042;-51
2023/09/24 01:19:09;;;;;;;6.05;3.05;;;;;;;10.31;100.00;102113.78;4975436;28;20089;-47
2023/09/24 01:21:36;;;;;;;9.35;3.35;;;;;;;9.90;100.00;102045.78;4974844;28;20042;-49
2023/09/24 01:24:03;;;;;;;9.05;3.55;;;;;;;9.71;100.00;102040.72;4975010;28;20035;-48
2023/09/24 01:26:28;;;;;;;7.18;3.35;;;;;;;9.80;100.00;102044.16;4974687;28;20042;-47
2023/09/24 01:28:54;;;;;;;12.57;3.03;;;;;;;10.18;100.00;102116.56;4973100;28;20035;-47
2023/09/24 01:31:19;;;;;;;6.80;3.67;;;;;;;9.67;100.00;102052.16;4973056;28;20491;-48
2023/09/24 01:33:45;;;;;;;7.35;3.78;;;;;;;10.11;100.00;102123.59;4974783;28;20062;-50
2023/09/24 01:36:10;;;;;;;8.43;4.05;;;;;;;9.71;100.00;102046.00;4974597;28;20117;-48
2023/09/24 01:38:47;;;;;;;10.88;3.95;;;;;;;9.67;100.00;102039.88;4974700;28;20126;-49
2023/09/24 01:41:12;;;;;;;8.80;3.42;;;;;;;9.93;100.00;102085.19;4974477;28;20035;-47
2023/09/24 01:43:40;;;;;;;5.05;3.40;;;;;;;10.06;100.00;102107.88;4973121;28;20057;-48
2023/09/24 01:46:07;;;;;;;5.78;3.35;;;;;;;10.00;100.00;102118.47;4974442;28;20034;-50
2023/09/24 01:48:33;;;;;;;10.23;4.05;;;;;;;9.63;100.00;102046.91;4973421;28;20045;-46
2023/09/24 01:50:59;;;;;;;10.32;3.97;;;;;;;10.02;100.00;102106.16;4973652;28;20074;-49
2023/09/24 01:53:25;;;;;;;6.93;3.70;;;;;;;9.65;100.00;102046.91;4972825;28;20066;-49
2023/09/24 01:55:51;;;;;;;6.68;3.40;;;;;;;9.80;100.00;102066.94;4974190;28;20070;-47
2023/09/24 01:58:17;;;;;;;12.27;3.50;;;;;;;10.10;100.00;102125.34;4956863;28;20035;-48
2023/09/24 02:00:42;;;;;;;9.13;3.30;;;;;;;10.15;100.00;102128.00;4974145;28;20034;-47
2023/09/24 02:03:10;;;;;;;6.90;3.03;;;;;;;10.18;100.00;102127.09;4974302;28;20046;-48
2023/09/24 02:05:39;;;;;;;10.95;3.45;;;;;;;10.20;100.00;102126.19;4973137;28;20069;-50
2023/09/24 02:08:09;;;;;;;8.15;3.40;;;;;;;10.04;100.00;102116.69;4972786;28;20136;-47
2023/09/24 02:10:38;;;;;;;10.35;4.10;;;;;;;9.94;100.00;102096.59;4972855;28;20043;-48
2023/09/24 02:13:04;;;;;;;7.22;3.50;;;;;;;9.86;100.00;102061.63;4973059;28;20114;-46
2023/09/24 02:15:29;;;;;;;7.20;3.40;;;;;;;9.90;100.00;102079.09;4974094;28;20157;-47
2023/09/24 02:17:54;;;;;;;6.95;3.67;;;;;;;10.22;100.00;102128.78;4973810;28;20037;-48
2023/09/24 02:22:46;;;;;;;5.38;3.25;;;;;;;10.23;100.00;102126.16;4973845;28;20092;-50
2023/09/24 02:25:14;;;;;;;8.20;3.65;;;;;;;10.24;100.00;102138.44;4972566;28;20506;-51
2023/09/24 02:27:42;;;;;;;6.38;3.60;;;;;;;10.26;100.00;102127.88;4974023;28;20038;-47
2023/09/24 02:30:10;;;;;;;8.73;4.13;;;;;;;10.19;100.00;102127.06;4972611;28;20441;-48
2023/09/24 02:32:35;;;;;;;6.43;2.78;;;;;;;10.15;100.00;102118.34;4973848;28;20415;-47
2023/09/24 02:35:01;;;;;;;5.30;2.90;;;;;;;10.21;100.00;102127.06;4973577;28;20043;-47
2023/09/24 02:37:28;;;;;;;9.90;4.00;;;;;;;10.22;100.00;102132.28;4973437;28;20039;-47
2023/09/24 02:39:54;;;;;;;10.40;3.60;;;;;;;10.15;100.00;102131.50;4973682;28;20035;-48
2023/09/24 02:42:20;;;;;;;5.35;3.30;;;;;;;9.97;100.00;102089.56;4972398;28;20093;-47
2023/09/24 02:44:47;;;;;;;4.68;2.65;;;;;;;10.13;100.00;102112.22;4971538;28;20082;-52
2023/09/24 02:47:12;;;;;;;7.60;3.28;;;;;;;10.02;100.00;102105.28;4973600;28;20129;-45
2023/09/24 02:49:37;;;;;;;7.10;3.40;;;;;;;9.95;100.00;102114.13;4973386;28;20066;-46
2023/09/24 02:52:03;;;;;;;6.30;3.00;;;;;;;8.93;100.00;101938.09;4973308;28;20038;-48
2023/09/24 02:54:28;;;;;;;4.20;2.90;;;;;;;9.76;100.00;102067.84;4972596;28;20517;-51
2023/09/24 02:56:53;;;;;;;7.53;2.97;;;;;;;10.10;100.00;102125.34;4973426;28;20051;-49
2023/09/24 02:59:19;;;;;;;4.90;2.83;;;;;;;10.10;100.00;102124.47;4972292;28;20117;-52
2023/09/24 03:01:51;;;;;;;6.30;2.78;;;;;;;10.03;100.00;102134.22;4971770;28;20383;-50
2023/09/24 03:04:17;;;;;;;7.50;3.20;;;;;;;10.06;100.00;102130.69;4973458;28;20066;-51
2023/09/24 03:06:42;;;;;;;8.18;3.40;;;;;;;9.98;100.00;102119.38;4973298;28;20082;-47
2023/09/24 03:09:10;;;;;;;9.95;3.30;;;;;;;10.04;100.00;102141.19;4972293;28;20038;-51
2023/09/24 03:11:36;;;;;;;7.80;3.67;;;;;;;10.09;100.00;102138.53;4972226;28;20105;-52
2023/09/24 03:14:02;;;;;;;6.82;3.20;;;;;;;9.99;100.00;102150.03;4972080;28;20039;-45
2023/09/24 03:16:28;;;;;;;7.45;3.53;;;;;;;9.56;100.00;102086.44;4972221;28;20039;-47
2023/09/24 03:18:54;;;;;;;9.45;3.60;;;;;;;9.59;100.00;102092.53;4973300;28;20043;-46
2023/09/24 03:21:19;;;;;;;9.15;2.90;;;;;;;9.77;100.00;102122.19;4973135;28;20057;-45
2023/09/24 03:23:45;;;;;;;8.02;3.63;;;;;;;9.60;100.00;102091.63;4973446;28;20390;-47
2023/09/24 03:26:14;;;;;;;8.93;3.53;;;;;;;10.00;100.00;102159.66;4973080;28;20502;-48
2023/09/24 03:28:42;;;;;;;11.45;2.85;;;;;;;9.97;100.00;102162.31;4973267;28;20094;-46
2023/09/24 03:31:14;;;;;;;8.48;3.40;;;;;;;10.01;100.00;102167.53;4972286;28;20038;-51
2023/09/24 03:33:40;;;;;;;7.20;3.42;;;;;;;10.04;100.00;102158.78;4972976;28;20031;-48
2023/09/24 03:36:10;;;;;;;8.10;3.22;;;;;;;9.68;100.00;102103.84;4971872;28;20043;-47
2023/09/24 03:38:36;;;;;;;7.95;3.72;;;;;;;9.92;100.00;102150.97;4971728;28;20043;-47
2023/09/24 03:41:03;;;;;;;9.45;3.80;;;;;;;9.63;100.00;102092.50;4973199;28;20073;-48
2023/09/24 03:43:28;;;;;;;8.02;3.10;;;;;;;10.08;100.00;102160.47;4971601;28;20458;-45
2023/09/24 03:45:53;;;;;;;7.55;3.35;;;;;;;9.72;100.00;102100.31;4971919;28;20031;-47
2023/09/24 03:48:19;;;;;;;9.57;3.92;;;;;;;10.22;100.00;102169.13;4972940;28;20049;-50
2023/09/24 03:50:45;;;;;;;9.13;3.45;;;;;;;9.97;100.00;102114.97;4973075;28;20035;-48
2023/09/24 03:53:10;;;;;;;7.93;3.97;;;;;;;10.16;100.00;102145.50;4974403;28;20074;-48
2023/09/24 03:55:36;;;;;;;9.48;3.90;;;;;;;10.34;100.00;102176.03;4975024;28;20379;-51
2023/09/24 03:58:02;;;;;;;9.93;4.60;;;;;;;10.26;100.00;102175.25;4976387;28;20035;-47
2023/09/24 04:00:28;;;;;;;9.65;4.10;;;;;;;9.84;100.00;102116.84;4976485;28;20042;-50
2023/09/24 04:02:53;;;;;;;8.40;3.92;;;;;;;10.21;100.00;102188.47;4975377;28;20399;-52
2023/09/24 04:05:21;;;;;;;9.65;3.90;;;;;;;10.26;100.00;102184.00;4976179;28;20031;-48
2023/09/24 04:07:49;;;;;;;9.65;4.50;;;;;;;9.94;100.00;102117.63;4977660;28;20430;-48
2023/09/24 04:10:15;;;;;;;8.95;4.40;;;;;;;10.34;100.00;102181.28;4974939;28;20520;-51
2023/09/24 04:12:49;;;;;;;11.32;4.60;;;;;;;9.98;100.00;102120.22;4975067;28;20034;-48
2023/09/24 04:15:18;;;;;;;8.63;4.68;;;;;;;10.37;100.00;102191.78;4974968;28;20046;-47
2023/09/24 04:17:46;;;;;;;13.85;5.20;;;;;;;10.41;100.00;102189.13;4976015;28;20034;-47
2023/09/24 04:20:15;;;;;;;11.32;5.25;;;;;;;10.35;100.00;102177.78;4975502;28;20125;-49
2023/09/24 04:22:44;;;;;;;10.13;5.63;;;;;;;10.39;100.00;102190.88;4974995;28;20086;-47
2023/09/24 04:25:11;;;;;;;9.05;5.28;;;;;;;10.30;100.00;102198.03;4974697;28;20479;-46
2023/09/24 04:27:38;;;;;;;9.55;6.20;;;;;;;10.06;100.00;102134.19;4975949;28;20041;-50
2023/09/24 04:30:05;;;;;;;28.85;7.30;;;;;;;10.11;100.00;102148.16;4976030;28;20058;-45
2023/09/24 04:32:30;;;;;;;9.68;5.95;;;;;;;10.33;100.00;102190.97;4958334;28;20042;-47
2023/09/24 04:34:56;;;;;;;14.70;5.60;;;;;;;10.34;100.00;102192.69;4974609;28;20038;-47
2023/09/24 04:37:21;;;;;;;9.35;5.47;;;;;;;10.32;100.00;102194.47;4976184;28;20034;-48
2023/09/24 04:39:47;;;;;;;8.77;5.93;;;;;;;10.26;100.00;102207.69;4975785;28;20035;-46
2023/09/24 04:42:14;;;;;;;11.00;6.57;;;;;;;9.75;100.00;102124.81;4974560;28;20039;-45
2023/09/24 04:44:39;;;;;;;15.25;6.80;;;;;;;9.79;100.00;102138.81;4975353;28;20051;-48
2023/09/24 04:47:05;;;;;;;15.00;7.07;;;;;;;9.86;100.00;102137.88;4974565;28;20085;-45
2023/09/24 04:49:30;;;;;;;12.77;6.78;;;;;;;10.25;100.00;102194.53;4975523;28;20113;-45
2023/09/24 04:51:56;;;;;;;10.63;6.20;;;;;;;9.85;100.00;102139.63;4974353;28;20034;-47
2023/09/24 04:54:22;;;;;;;17.13;7.00;;;;;;;10.21;100.00;102208.63;4975465;28;20046;-45
2023/09/24 04:56:48;;;;;;;13.10;6.72;;;;;;;10.17;100.00;102197.25;4974158;28;20394;-49
2023/09/24 04:59:13;;;;;;;14.32;7.18;;;;;;;10.12;100.00;102193.75;4975324;28;20035;-47
2023/09/24 05:01:38;;;;;;;12.70;6.82;;;;;;;9.69;100.00;102137.16;4975133;28;20098;-48
2023/09/24 05:04:04;;;;;;;16.40;7.35;;;;;;;10.04;100.00;102198.22;4975630;28;20047;-46
2023/09/24 05:06:32;;;;;;;14.85;7.65;;;;;;;9.88;100.00;102173.81;4973820;28;20402;-48
2023/09/24 05:08:57;;;;;;;14.63;7.07;;;;;;;9.77;100.00;102173.03;4974041;28;20109;-48
2023/09/24 05:11:23;;;;;;;14.80;6.72;;;;;;;9.92;100.00;102208.84;4975340;28;20542;-47
2023/09/24 05:13:48;;;;;;;11.18;7.15;;;;;;;9.88;100.00;102205.38;4973637;28;20035;-47
2023/09/24 05:16:15;;;;;;;13.90;7.03;;;;;;;9.49;100.00;102138.16;4975018;28;20027;-47
2023/09/24 05:18:41;;;;;;;13.80;8.23;;;;;;;9.78;100.00;102206.31;4975309;28;20038;-48
2023/09/24 05:21:14;;;;;;;13.90;7.30;;;;;;;9.77;100.00;102211.59;4974595;28;20039;-44
2023/09/24 05:23:39;;;;;;;13.57;7.82;;;;;;;9.39;100.00;102139.13;4973863;28;20042;-47
2023/09/24 05:26:13;;;;;;;15.13;8.00;;;;;;;9.68;100.00;102211.66;4974845;28;20034;-48
2023/09/24 05:28:39;;;;;;;12.93;7.97;;;;;;;9.74;100.00;102230.91;4973858;28;20031;-46
2023/09/24 05:31:04;;;;;;;17.05;7.28;;;;;;;9.63;100.00;102194.13;4974981;28;20035;-51
2023/09/24 05:33:29;;;;;;;13.43;7.85;;;;;;;9.66;100.00;102219.53;4973938;28;20073;-44
2023/09/24 05:35:55;;;;;;;17.15;8.27;;;;;;;9.27;100.00;102139.22;4972977;28;20038;-47
2023/09/24 05:38:20;;;;;;;11.85;6.82;;;;;;;9.66;100.00;102203.75;4974930;28;20041;-47
2023/09/24 05:40:46;;;;;;;11.93;7.72;;;;;;;9.81;100.00;102216.78;4973039;28;20121;-47
2023/09/24 05:43:11;;;;;;;13.10;8.00;;;;;;;9.86;100.00;102228.19;4974178;28;20038;-47
2023/09/24 05:45:46;;;;;;;14.57;7.65;;;;;;;9.90;100.00;102223.75;4972850;28;20113;-46
2023/09/24 05:48:15;;;;;;;12.50;7.93;;;;;;;9.96;100.00;102224.56;4973476;28;20064;-46
2023/09/24 05:50:42;;;;;;;15.93;8.10;;;;;;;9.53;100.00;102153.03;4973035;28;20043;-46
2023/09/24 05:53:11;;;;;;;15.98;8.05;;;;;;;9.60;100.00;102159.97;4974025;28;20031;-49
2023/09/24 05:55:36;;;;;;;13.48;7.63;;;;;;;10.07;100.00;102230.63;4973222;28;20031;-49
2023/09/24 05:58:03;;;;;;;17.67;8.18;;;;;;;9.72;100.00;102153.75;4957235;28;20027;-48
2023/09/24 06:00:29;;;;;;;17.55;9.52;;;;;;;10.10;100.00;102208.66;4973268;28;20074;-48
2023/09/24 06:02:54;;;;;;;16.73;9.02;;;;;;;10.32;100.00;102231.31;4967510;28;20065;-49
2023/09/24 06:05:20;;;;;;;13.48;7.90;;;;;;;10.37;100.00;102234.78;4963186;28;20083;-50
2023/09/24 06:07:45;;;;;;;14.18;7.72;;;;;;;9.52;100.00;102084.69;4973085;28;20049;-48
2023/09/24 06:10:10;;;;;;;15.60;8.20;;;;;;;10.44;100.00;102236.47;4970833;28;20313;-48
2023/09/24 06:12:36;;;;;;;15.70;7.93;;;;;;;10.46;100.00;102246.97;4971649;28;20085;-49
2023/09/24 06:15:03;;;;;;;13.05;8.02;;;;;;;10.40;100.00;102241.78;4970728;28;20050;-49
2023/09/24 06:17:29;;;;;;;13.88;8.30;;;;;;;10.44;100.00;102235.59;4972181;28;20041;-46
2023/09/24 06:19:55;;;;;;;18.48;7.68;;;;;;;10.44;100.00;102247.00;4971590;28;20043;-47
2023/09/24 06:22:22;;;;;;;13.73;8.38;;;;;;;10.21;100.00;102203.38;4973595;28;20119;-49
2023/09/24 06:24:49;;;;;;;13.60;7.93;;;;;;;10.41;100.00;102241.78;4973511;28;20039;-48
2023/09/24 06:27:16;;;;;;;15.35;9.05;;;;;;;10.48;100.00;102256.59;4954997;28;20513;-47
2023/09/24 06:29:41;;;;;;;12.52;8.18;;;;;;;10.48;100.00;102253.09;4971961;28;20061;-47
2023/09/24 06:32:06;;;;;;;16.50;7.63;;;;;;;10.37;100.00;102236.53;4972820;28;20496;-46
2023/09/24 06:34:35;;;;;;;12.98;7.53;;;;;;;10.48;100.00;102248.72;4971778;28;20039;-50
2023/09/24 06:37:00;;;;;;;14.90;7.88;;;;;;;10.49;100.00;102252.22;4973340;28;20081;-47
2023/09/24 06:39:26;;;;;;;14.20;8.38;;;;;;;10.47;100.00;102254.88;4972407;28;20066;-48
2023/09/24 06:41:51;;;;;;;11.82;8.30;;;;;;;10.52;100.00;102260.09;4973480;28;20038;-47
2023/09/24 06:44:22;;;;;;;15.38;8.98;;;;;;;10.31;100.00;102219.03;4971340;28;20039;-50
2023/09/24 06:46:47;;;;;;;14.05;9.02;;;;;;;10.51;100.00;102247.78;4971337;28;20382;-46
2023/09/24 06:49:12;;;;;;;14.00;9.68;;;;;;;10.62;100.00;102259.97;4970209;28;20121;-48
2023/09/24 06:51:38;;;;;;;16.13;8.77;;;;;;;10.66;100.00;102266.09;4973523;28;20050;-46
2023/09/24 06:54:03;;;;;;;19.02;9.68;;;;;;;10.69;100.00;102266.94;4973265;28;20043;-46
2023/09/24 06:56:28;;;;;;;15.98;9.57;;;;;;;10.68;100.00;102264.31;4971361;28;20113;-47
2023/09/24 06:58:54;;;;;;;18.02;8.95;;;;;;;10.37;100.00;102208.47;4967603;28;20247;-49
2023/09/24 07:01:19;;;;;;;19.05;9.38;;;;;;;10.74;100.00;102265.13;4971408;28;20042;-47
2023/09/24 07:03:45;;;;;;;14.77;9.85;;;;;;;10.86;100.00;102273.81;4972436;28;20038;-48
2023/09/24 07:06:11;;;;;;;15.20;9.20;;;;;;;10.96;100.00;102283.34;4963317;28;20133;-47
2023/09/24 07:08:36;;;;;;;15.73;8.80;;;;;;;11.06;100.00;102285.84;4973547;28;20173;-48
2023/09/24 07:11:20;;;;;;;9.35;7.43;;;;;;;11.22;100.00;102297.97;4972311;28;20031;-49
2023/09/24 07:13:45;;;;;;;11.98;7.82;;;;;;;10.97;100.00;102216.59;4971215;28;20049;-47
2023/09/24 07:16:11;;;;;;;10.85;7.72;;;;;;;11.37;100.00;102261.75;4971705;28;20046;-48
2023/09/24 07:18:36;;;;;;;12.82;7.45;;;;;;;11.44;100.00;102261.63;4972153;28;20438;-48
2023/09/24 07:21:02;;;;;;;12.60;7.10;;;;;;;11.80;100.00;102292.81;4973228;28;20049;-49
2023/09/24 07:23:27;;;;;;;9.98;6.28;;;;;;;11.94;100.00;102295.25;4971391;28;20503;-47
2023/09/24 07:25:53;;;;;;;10.48;6.60;;;;;;;11.69;100.00;102239.34;4971100;28;20093;-45
2023/09/24 07:28:20;;;;;;;14.95;6.63;;;;;;;12.13;100.00;102287.94;4974705;28;20097;-49
2023/09/24 07:30:45;;;;;;;8.32;5.75;;;;;;;11.98;100.00;102244.19;4974947;28;20045;-46
2023/09/24 07:33:10;;;;;;;8.60;5.47;;;;;;;12.02;100.00;102237.97;4975444;28;20435;-48
2023/09/24 07:35:36;;;;;;;10.93;5.50;;;;;;;12.17;100.00;102224.50;4973057;28;20039;-48
2023/09/24 07:38:01;;;;;;;9.00;4.80;;;;;;;12.57;100.00;102266.94;4975649;28;20043;-47
2023/09/24 07:40:26;;;;;;;7.57;4.53;;;;;;;12.44;100.00;102228.41;4976072;28;20030;-48
2023/09/24 07:42:52;;;;;;;11.23;4.82;;;;;;;12.56;100.00;102230.84;4971351;28;20035;-46
2023/09/24 07:45:18;;;;;;;6.60;4.18;;;;;;;13.03;100.00;102281.91;4976960;28;20062;-49
2023/09/24 07:47:44;;;;;;;7.20;3.72;;;;;;;13.14;100.00;102287.88;4974759;28;20038;-47
2023/09/24 07:50:10;;;;;;;7.35;3.70;;;;;;;12.88;100.00;102230.22;4975244;28;20066;-51
2023/09/24 07:52:36;;;;;;;7.82;3.30;;;;;;;13.01;100.00;102231.75;4975163;28;20059;-50
2023/09/24 07:55:01;;;;;;;5.50;3.58;;;;;;;13.52;100.00;102294.13;4976499;28;20039;-50
2023/09/24 07:57:27;;;;;;;9.65;3.15;;;;;;;13.62;100.00;102286.88;4976579;28;20085;-50
2023/09/24 07:59:54;;;;;;;5.55;3.05;;;;;;;13.76;100.00;102283.91;4973259;28;20123;-51
2023/09/24 08:02:20;;;;;;;5.72;2.58;;;;;;;14.12;100.00;102304.25;4966961;28;20047;-46
2023/09/24 08:04:46;;;;;;;9.02;3.10;;;;;;;14.32;100.00;102319.66;4976213;28;20504;-49
2023/09/24 08:07:11;;;;;;;5.93;3.22;;;;;;;14.57;100.00;102307.56;4974166;28;20042;-51
2023/09/24 08:09:38;;;;;;;5.72;2.38;;;;;;;14.77;100.00;102320.31;4974162;28;20122;-52
2023/09/24 08:12:04;;;;;;;5.20;2.80;;;;;;;14.99;100.00;102325.00;4974161;28;20050;-49
2023/09/24 08:14:29;;;;;;;4.25;2.35;;;;;;;15.10;100.00;102288.44;4973624;28;20394;-50
2023/09/24 08:16:54;;;;;;;4.78;2.70;;;;;;;15.56;100.00;102322.50;4974922;28;20066;-50
2023/09/24 08:19:20;;;;;;;3.80;2.67;;;;;;;15.83;100.00;102310.19;4974481;28;20038;-50
2023/09/24 08:21:45;;;;;;;7.95;2.20;;;;;;;16.37;100.00;102343.91;4968472;28;20042;-46
2023/09/24 08:24:10;;;;;;;5.57;2.30;;;;;;;16.66;100.00;102303.94;4976016;28;20435;-48
2023/09/24 08:26:36;;;;;;;3.70;2.22;;;;;;;17.54;100.00;102357.50;4961183;28;20110;-48
2023/09/24 08:29:05;;;;;;;6.10;2.65;;;;;;;18.12;100.00;102371.28;4961255;28;20105;-51
2023/09/24 08:31:32;;;;;;;8.57;2.35;;;;;;;18.22;100.00;102372.63;4974569;28;20031;-49
2023/09/24 08:33:58;;;;;;;6.57;1.95;;;;;;;18.45;100.00;102429.44;4975182;28;20359;-46
2023/09/24 08:36:23;;;;;;;5.03;2.17;;;;;;;18.29;100.00;102372.34;4975670;28;20038;-47
2023/09/24 08:38:48;;;;;;;5.85;2.15;;;;;;;19.02;100.00;102444.03;4970441;28;20090;-46
2023/09/24 08:41:14;;;;;;;7.72;2.63;;;;;;;19.60;100.00;102432.59;4956390;28;20063;-49
2023/09/24 08:43:42;;;;;;;5.35;2.00;;;;;;;19.73;100.00;102371.44;4956217;28;20039;-48
2023/09/24 08:46:08;;;;;;;3.95;2.03;;;;;;;20.55;100.00;102429.91;4956254;28;20101;-51
2023/09/24 08:48:34;;;;;;;6.93;2.53;;;;;;;20.41;100.00;102360.16;4958947;28;20074;-48
2023/09/24 08:51:01;;;;;;;6.97;2.20;;;;;;;21.05;100.00;102402.41;4973715;28;20078;-49
2023/09/24 08:53:29;;;;;;;5.13;2.20;;;;;;;21.54;100.00;102404.28;4975421;28;20035;-49
2023/09/24 08:55:55;;;;;;;2.75;1.75;;;;;;;21.94;100.00;102378.91;4971910;28;20039;-50
2023/09/24 08:58:20;;;;;;;4.00;1.60;;;;;;;22.37;100.00;102422.94;4974609;28;20045;-49
2023/09/24 09:00:45;;;;;;;4.88;2.17;;;;;;;22.04;100.00;102363.16;4973127;28;20478;-46
2023/09/24 09:03:11;;;;;;;4.22;1.98;;;;;;;22.46;100.00;102435.84;4975226;28;20395;-48
2023/09/24 09:05:37;;;;;;;3.72;1.73;;;;;;;22.41;100.00;102413.78;4972665;28;20035;-47
2023/09/24 09:08:04;;;;;;;6.65;2.45;;;;;;;22.36;100.00;102426.56;4972831;28;20140;-52
2023/09/24 09:10:31;;;;;;;4.75;2.15;;;;;;;22.37;100.00;102420.25;4960776;28;20046;-48
2023/09/24 09:13:06;;;;;;;5.43;2.10;;;;;;;22.56;100.00;102426.34;4962125;28;20093;-49
2023/09/24 09:15:32;;;;;;;3.17;1.85;;;;;;;22.62;100.00;102388.38;4972288;28;20121;-49
2023/09/24 09:17:59;;;;;;;3.15;1.60;;;;;;;22.71;100.00;102403.97;4975298;28;20066;-48
2023/09/24 09:20:41;;;;;;;4.32;1.92;;;;;;;22.94;100.00;102416.91;4973936;28;20058;-48
2023/09/24 09:23:15;;;;;;;6.03;2.25;;;;;;;22.41;100.00;102378.91;4972912;28;20034;-48
2023/09/24 09:25:52;;;;;;;4.40;2.10;;;;;;;22.73;100.00;102390.47;4966268;28;20039;-49
2023/09/24 09:28:36;;;;;;;2.70;1.83;;;;;;;22.51;100.00;102380.09;4954512;29;20086;-48
2023/09/24 09:31:07;;;;;;;5.68;2.30;;;;;;;22.86;100.00;102402.22;4956806;28;20523;-48
2023/09/24 09:33:43;;;;;;;4.60;2.45;;;;;;;23.13;100.00;102402.38;4955593;28;20483;-49
2023/09/24 09:36:30;;;;;;;4.50;1.85;;;;;;;22.75;100.00;102385.88;4955540;28;20035;-51
2023/09/24 09:38:57;;;;;;;5.90;1.98;;;;;;;22.67;100.00;102354.13;4967128;28;20521;-48
2023/09/24 09:41:24;;;;;;;4.70;1.98;;;;;;;22.67;100.00;102402.44;4955033;28;20513;-48
2023/09/24 09:43:51;;;;;;;4.22;1.50;;;;;;;22.52;100.00;102360.34;4971800;28;20051;-49
2023/09/24 09:46:18;;;;;;;8.07;2.30;;;;;;;22.41;100.00;102393.19;4973912;28;20126;-52
2023/09/24 09:48:51;;;;;;;4.30;2.10;;;;;;;22.08;100.00;102292.31;4974256;28;20123;-48
2023/09/24 09:51:19;;;;;;;4.57;1.85;;;;;;;22.43;100.00;102380.53;4971276;28;20034;-51
2023/09/24 09:53:44;;;;;;;4.60;1.67;;;;;;;22.44;100.00;102373.38;4973344;28;20405;-46
2023/09/24 09:56:10;;;;;;;2.05;1.67;;;;;;;21.96;100.00;102322.50;4971280;28;20114;-50
2023/09/24 09:58:37;;;;;;;6.25;2.38;;;;;;;22.41;100.00;102377.09;4958953;28;20068;-47
2023/09/24 10:01:04;;;;;;;4.78;1.92;;;;;;;22.31;100.00;102378.56;4972484;28;20031;-52
2023/09/24 10:03:33;;;;;;;2.55;1.40;;;;;;;22.81;100.00;102383.72;4972602;28;20039;-47
2023/09/24 10:05:59;;;;;;;3.55;2.20;;;;;;;23.43;100.00;102334.25;4972258;28;20471;-51
2023/09/24 10:08:37;;;;;;;5.93;1.85;;;;;;;24.59;100.00;102376.00;4968493;28;20090;-46
2023/09/24 10:11:04;;;;;;;3.33;1.50;;;;;;;24.36;100.00;102320.16;4960614;28;20031;-50
2023/09/24 10:13:43;;;;;;;3.47;1.63;;;;;;;24.53;100.00;102373.72;4973878;28;20042;-48
2023/09/24 10:16:27;;;;;;;5.63;1.75;;;;;;;24.97;100.00;102370.75;4954895;28;20045;-46
2023/09/24 10:18:57;;;;;;;3.75;1.60;;;;;;;24.59;100.00;102373.31;4968298;28;20053;-51
2023/09/24 10:21:36;;;;;;;3.15;1.63;;;;;;;23.70;100.00;102314.66;4970647;28;20468;-47
2023/09/24 10:24:14;;;;;;;3.05;1.38;;;;;;;23.41;100.00;102373.78;4972459;28;20514;-47
2023/09/24 10:26:52;;;;;;;2.65;1.70;;;;;;;22.93;100.00;102369.56;4962699;28;20031;-48
2023/09/24 10:29:19;;;;;;;3.72;1.90;;;;;;;22.36;100.00;102346.97;4953625;29;20024;-50
2023/09/24 10:32:06;;;;;;;2.67;1.60;;;;;;;22.10;100.00;102357.44;4952406;28;20170;-49
2023/09/24 10:34:53;;;;;;;3.03;1.52;;;;;;;22.48;100.00;102365.97;4959390;28;20088;-49
2023/09/24 10:37:37;;;;;;;3.63;1.77;;;;;;;23.03;100.00;102355.56;4971893;28;20126;-49
2023/09/24 10:40:09;;;;;;;2.50;1.25;;;;;;;24.33;100.00;102372.38;4952792;29;20079;-47
2023/09/24 10:42:39;;;;;;;2.75;1.63;;;;;;;24.24;100.00;102315.59;4954083;28;20039;-50
2023/09/24 10:45:14;;;;;;;5.10;1.92;;;;;;;24.45;100.00;102378.75;4949951;29;20051;-51
2023/09/24 10:47:41;;;;;;;3.47;2.08;;;;;;;23.73;100.00;102299.16;4953650;28;20075;-52
2023/09/24 10:50:12;;;;;;;4.72;1.98;;;;;;;23.91;100.00;102348.22;4954063;28;20050;-47
2023/09/24 10:52:47;;;;;;;;;;;;;;;24.29;100.00;102367.25;4952443;29;20059;-44
2023/09/24 10:55:13;;;;;;;4.25;1.73;;;;;;;24.31;100.00;102282.81;4952914;29;19914;-48
2023/09/24 10:57:43;;;;;;;2.80;1.85;;;;;;;24.74;100.00;102314.88;4954321;28;20130;-47
2023/09/24 11:00:15;;;;;;;4.70;2.08;;;;;;;25.39;100.00;102345.34;4952803;29;20027;-50
2023/09/24 11:02:40;;;;;;;3.92;1.42;;;;;;;26.21;100.00;102360.00;4953864;28;20086;-47
2023/09/24 11:05:06;;;;;;;4.47;2.10;;;;;;;26.46;100.00;102307.75;4952905;29;20439;-48
2023/09/24 11:07:31;;;;;;;4.57;1.95;;;;;;;26.80;100.00;102306.91;4953812;28;20039;-46
2023/09/24 11:09:57;;;;;;;5.78;1.98;;;;;;;27.38;100.00;102348.28;4953976;28;20035;-48
2023/09/24 11:12:22;;;;;;;5.25;2.10;;;;;;;27.51;99.18;102364.44;4952843;29;20035;-48
2023/09/24 11:14:58;;;;;;;3.63;1.45;;;;;;;27.50;98.57;102365.41;4952706;29;20039;-49
2023/09/24 11:17:24;;;;;;;3.42;2.08;;;;;;;27.13;100.00;102297.13;4954125;28;20087;-49
2023/09/24 11:19:49;;;;;;;3.45;1.63;;;;;;;27.59;97.10;102316.84;4953888;28;20435;-46